createdAt,value
2019-02-09T00:01:43.333Z,1.37
2019-02-09T00:04:12.388Z,1.37
2019-02-09T00:06:42.511Z,1.40
2019-02-09T00:09:12.002Z,1.60
2019-02-09T00:11:41.248Z,1.60
2019-02-09T00:14:10.688Z,1.40
2019-02-09T00:16:43.560Z,1.30
2019-02-09T00:19:12.589Z,1.60
2019-02-09T00:21:42.114Z,1.63
2019-02-09T00:24:11.071Z,1.97
2019-02-09T00:26:40.768Z,1.70
2019-02-09T00:29:13.585Z,1.60
2019-02-09T00:31:43.216Z,1.60
2019-02-09T00:34:12.349Z,2.30
2019-02-09T00:36:41.679Z,2.10
2019-02-09T00:39:10.786Z,1.90
2019-02-09T00:41:40.242Z,2.40
2019-02-09T00:44:11.481Z,2.30
2019-02-09T00:46:40.590Z,1.83
2019-02-09T00:49:10.598Z,1.70
2019-02-09T00:51:40.588Z,2.27
2019-02-09T00:54:10.064Z,2.30
2019-02-09T00:56:39.976Z,2.60
2019-02-09T00:59:09.091Z,1.90
2019-02-09T01:01:38.548Z,2.30
2019-02-09T01:04:09.090Z,2.20
2019-02-09T01:06:39.225Z,2.37
2019-02-09T01:09:12.514Z,2.50
2019-02-09T01:11:44.415Z,2.53
2019-02-09T01:14:14.523Z,2.50
2019-02-09T01:16:43.886Z,3.10
2019-02-09T01:19:14.532Z,2.63
2019-02-09T01:21:47.012Z,2.93
2019-02-09T01:24:17.151Z,2.50
2019-02-09T01:26:46.606Z,2.63
2019-02-09T01:29:15.884Z,2.07
2019-02-09T01:31:46.330Z,3.03
2019-02-09T01:34:15.604Z,2.30
2019-02-09T01:36:47.730Z,2.30
2019-02-09T01:39:17.808Z,2.63
2019-02-09T01:41:47.048Z,2.33
2019-02-09T01:44:16.758Z,2.60
2019-02-09T01:46:47.356Z,3.03
2019-02-09T01:49:19.332Z,2.73
2019-02-09T01:51:48.523Z,2.83
2019-02-09T01:54:18.010Z,2.90
2019-02-09T01:56:47.914Z,2.43
2019-02-09T01:59:17.436Z,2.67
2019-02-09T02:01:46.786Z,3.10
2019-02-09T02:04:16.366Z,2.37
2019-02-09T02:06:46.556Z,2.50
2019-02-09T02:09:15.919Z,2.93
2019-02-09T02:11:45.296Z,3.17
2019-02-09T02:14:14.459Z,3.17
2019-02-09T02:16:44.708Z,2.50
2019-02-09T02:19:13.932Z,2.97
2019-02-09T02:21:42.958Z,2.87
2019-02-09T02:24:12.830Z,2.90
2019-02-09T02:26:42.588Z,3.37
2019-02-09T02:29:13.248Z,2.70
2019-02-09T02:31:42.639Z,3.03
2019-02-09T02:34:12.126Z,2.90
2019-02-09T02:36:41.498Z,2.63
2019-02-09T02:39:13.238Z,2.80
2019-02-09T02:41:42.589Z,2.67
2019-02-09T02:44:11.691Z,3.30
2019-02-09T02:46:42.132Z,2.17
2019-02-09T02:49:11.411Z,2.57
2019-02-09T02:51:40.955Z,3.00
2019-02-09T02:54:09.994Z,3.17
2019-02-09T02:56:39.467Z,3.03
2019-02-09T02:59:08.584Z,2.50
2019-02-09T03:01:37.667Z,3.13
2019-02-09T03:04:06.880Z,3.17
2019-02-09T03:06:36.335Z,3.00
2019-02-09T03:09:08.426Z,2.87
2019-02-09T03:11:37.543Z,2.60
2019-02-09T03:14:07.706Z,2.60
2019-02-09T03:16:36.738Z,3.17
2019-02-09T03:19:06.058Z,2.87
2019-02-09T03:21:35.888Z,2.93
2019-02-09T03:24:05.213Z,3.03
2019-02-09T03:26:34.929Z,3.37
2019-02-09T03:29:04.522Z,3.17
2019-02-09T03:31:34.016Z,2.53
2019-02-09T03:34:03.885Z,3.03
2019-02-09T03:36:33.200Z,2.63
2019-02-09T03:39:02.265Z,2.67
2019-02-09T03:41:31.622Z,2.57
2019-02-09T03:44:00.677Z,1.90
2019-02-09T03:46:29.992Z,2.27
2019-02-09T03:49:00.140Z,1.97
2019-02-09T03:51:29.300Z,1.43
2019-02-09T03:53:58.434Z,2.10
2019-02-09T03:56:29.477Z,1.30
2019-02-09T03:58:59.091Z,1.53
2019-02-09T04:01:28.113Z,1.80
2019-02-09T04:03:57.527Z,1.40
2019-02-09T04:06:26.707Z,1.80
2019-02-09T04:08:56.166Z,1.77
2019-02-09T04:11:25.572Z,1.50
2019-02-09T04:13:54.768Z,1.80
2019-02-09T04:16:24.295Z,2.47
2019-02-09T04:18:54.010Z,1.90
2019-02-09T04:21:26.062Z,2.00
2019-02-09T04:23:55.162Z,2.80
2019-02-09T04:26:24.702Z,2.20
2019-02-09T04:28:54.707Z,2.10
2019-02-09T04:31:24.152Z,2.17
2019-02-09T04:33:56.187Z,3.07
2019-02-09T04:36:25.691Z,2.50
2019-02-09T04:38:55.463Z,2.83
2019-02-09T04:41:25.006Z,2.70
2019-02-09T04:43:54.273Z,2.83
2019-02-09T04:46:28.000Z,2.83
2019-02-09T04:48:57.908Z,2.53
2019-02-09T04:51:27.717Z,3.70
2019-02-09T04:53:57.069Z,2.50
2019-02-09T04:56:26.417Z,2.97
2019-02-09T04:58:56.037Z,2.73
2019-02-09T05:01:25.571Z,3.00
2019-02-09T05:03:54.812Z,3.57
2019-02-09T05:06:24.666Z,2.70
2019-02-09T05:08:54.993Z,2.40
2019-02-09T05:11:24.565Z,2.23
2019-02-09T05:13:54.281Z,2.33
2019-02-09T05:16:23.719Z,2.90
2019-02-09T05:18:53.033Z,3.20
2019-02-09T05:21:23.331Z,3.00
2019-02-09T05:23:53.292Z,3.37
2019-02-09T05:26:22.646Z,3.20
2019-02-09T05:28:52.118Z,4.20
2019-02-09T05:31:23.402Z,3.40
2019-02-09T05:33:56.227Z,3.57
2019-02-09T05:36:29.299Z,3.90
2019-02-09T05:38:59.207Z,3.23
2019-02-09T05:41:28.347Z,3.13
2019-02-09T05:43:58.191Z,2.80
2019-02-09T05:46:27.575Z,2.67
2019-02-09T05:48:57.262Z,2.53
2019-02-09T05:51:29.145Z,1.93
2019-02-09T05:53:58.434Z,2.10
2019-02-09T05:56:27.944Z,2.77
2019-02-09T05:58:57.957Z,2.30
2019-02-09T06:01:32.285Z,2.60
2019-02-09T06:04:01.197Z,2.07
2019-02-09T06:06:31.636Z,2.23
2019-02-09T06:09:01.562Z,1.87
2019-02-09T06:11:32.272Z,2.27
2019-02-09T06:14:01.853Z,2.00
2019-02-09T06:16:30.940Z,2.60
2019-02-09T06:19:00.807Z,2.37
2019-02-09T06:21:29.857Z,3.43
2019-02-09T06:23:59.243Z,2.60
2019-02-09T06:26:29.025Z,3.00
2019-02-09T06:28:58.292Z,2.60
2019-02-09T06:31:29.949Z,2.93
2019-02-09T06:33:59.415Z,3.80
2019-02-09T06:36:29.230Z,3.07
2019-02-09T06:38:58.542Z,3.23
2019-02-09T06:41:28.430Z,3.13
2019-02-09T06:43:58.864Z,3.50
2019-02-09T06:46:28.423Z,3.60
2019-02-09T06:48:58.193Z,3.30
2019-02-09T06:51:27.524Z,3.63
2019-02-09T06:53:57.945Z,3.87
2019-02-09T06:56:27.138Z,3.37
2019-02-09T06:58:56.218Z,3.57
2019-02-09T07:01:26.581Z,3.47
2019-02-09T07:03:57.506Z,3.40
2019-02-09T07:06:27.442Z,3.50
2019-02-09T07:08:56.965Z,3.97
2019-02-09T07:11:27.311Z,3.63
2019-02-09T07:13:57.182Z,3.47
2019-02-09T07:16:26.739Z,3.83
2019-02-09T07:18:56.081Z,4.07
2019-02-09T07:21:25.467Z,3.60
2019-02-09T07:23:55.347Z,3.50
2019-02-09T07:26:25.417Z,3.07
2019-02-09T07:28:55.421Z,3.50
2019-02-09T07:31:24.906Z,3.50
2019-02-09T07:33:54.295Z,3.87
2019-02-09T07:36:23.711Z,3.57
2019-02-09T07:38:52.761Z,4.03
2019-02-09T07:41:22.715Z,3.30
2019-02-09T07:43:52.053Z,3.10
2019-02-09T07:46:22.181Z,3.63
2019-02-09T07:48:52.911Z,3.27
2019-02-09T07:51:22.711Z,3.10
2019-02-09T07:53:52.722Z,3.10
2019-02-09T07:56:24.183Z,3.00
2019-02-09T07:58:54.030Z,3.13
2019-02-09T08:01:24.674Z,3.80
2019-02-09T08:03:54.455Z,2.87
2019-02-09T08:06:23.797Z,2.63
2019-02-09T08:08:54.207Z,3.80
2019-02-09T08:11:24.176Z,3.07
2019-02-09T08:13:53.351Z,3.40
2019-02-09T08:16:22.417Z,3.00
2019-02-09T08:18:51.840Z,2.90
2019-02-09T08:21:21.156Z,3.40
2019-02-09T08:23:50.614Z,3.63
2019-02-09T08:26:20.287Z,2.90
2019-02-09T08:28:49.329Z,3.77
2019-02-09T08:31:18.370Z,3.23
2019-02-09T08:33:47.421Z,3.30
2019-02-09T08:36:16.870Z,3.53
2019-02-09T08:38:45.909Z,3.73
2019-02-09T08:41:14.974Z,3.30
2019-02-09T08:43:44.311Z,3.37
2019-02-09T08:46:13.394Z,3.57
2019-02-09T08:48:42.414Z,4.60
2019-02-09T08:51:13.514Z,3.20
2019-02-09T08:53:43.027Z,3.67
2019-02-09T08:56:12.365Z,3.80
2019-02-09T08:58:41.759Z,3.70
2019-02-09T09:01:10.822Z,2.97
2019-02-09T09:03:39.837Z,3.10
2019-02-09T09:06:08.879Z,3.07
2019-02-09T09:08:38.249Z,2.53
2019-02-09T09:11:07.674Z,2.73
2019-02-09T09:13:37.039Z,2.47
2019-02-09T09:16:10.737Z,3.23
2019-02-09T09:18:40.051Z,3.27
2019-02-09T09:21:10.244Z,4.37
2019-02-09T09:23:39.343Z,2.83
2019-02-09T09:26:08.360Z,3.47
2019-02-09T09:28:37.402Z,3.47
2019-02-09T09:31:06.548Z,4.10
2019-02-09T09:33:35.853Z,3.77
2019-02-09T09:36:06.049Z,3.90
2019-02-09T09:38:35.407Z,4.47
2019-02-09T09:41:04.651Z,4.90
2019-02-09T09:43:34.177Z,4.70
2019-02-09T09:46:03.672Z,4.03
2019-02-09T09:48:32.733Z,3.63
2019-02-09T09:51:02.127Z,5.20
2019-02-09T09:53:31.143Z,4.47
2019-02-09T09:56:00.174Z,4.97
2019-02-09T09:58:29.343Z,5.47
2019-02-09T10:00:58.379Z,4.43
2019-02-09T10:03:27.368Z,3.73
2019-02-09T10:05:57.057Z,3.83
2019-02-09T10:08:26.471Z,4.00
2019-02-09T10:10:55.520Z,3.73
2019-02-09T10:13:25.193Z,4.07
2019-02-09T10:15:54.224Z,3.80
2019-02-09T10:18:23.381Z,3.97
2019-02-09T10:20:52.767Z,3.93
2019-02-09T10:23:21.969Z,3.60
2019-02-09T10:25:51.666Z,4.80
2019-02-09T10:28:20.720Z,4.23
2019-02-09T10:30:49.871Z,3.47
2019-02-09T10:33:18.889Z,3.23
2019-02-09T10:35:48.307Z,3.67
2019-02-09T10:38:17.333Z,3.73
2019-02-09T10:40:46.383Z,3.20
2019-02-09T10:43:15.441Z,3.60
2019-02-09T10:45:44.451Z,3.80
2019-02-09T10:48:14.384Z,4.30
2019-02-09T10:50:45.311Z,3.47
2019-02-09T10:53:14.369Z,3.83
2019-02-09T10:55:43.420Z,3.63
2019-02-09T10:58:12.691Z,3.80
2019-02-09T11:00:45.547Z,3.73
2019-02-09T11:03:14.611Z,3.30
2019-02-09T11:05:43.834Z,4.17
2019-02-09T11:08:13.353Z,3.80
2019-02-09T11:10:42.759Z,4.07
2019-02-09T11:13:12.673Z,3.73
2019-02-09T11:15:41.843Z,3.20
2019-02-09T11:18:10.911Z,3.67
2019-02-09T11:20:39.935Z,3.70
2019-02-09T11:23:09.131Z,3.50
2019-02-09T11:25:38.494Z,3.83
2019-02-09T11:28:08.074Z,3.53
2019-02-09T11:30:37.119Z,3.47
2019-02-09T11:33:06.149Z,4.43
2019-02-09T11:35:35.199Z,4.43
2019-02-09T11:38:04.542Z,3.17
2019-02-09T11:40:33.620Z,4.00
2019-02-09T11:43:03.355Z,2.87
2019-02-09T11:45:32.480Z,3.13
2019-02-09T11:48:01.879Z,2.90
2019-02-09T11:50:30.948Z,2.43
2019-02-09T11:53:00.011Z,2.47
2019-02-09T11:55:29.133Z,2.70
2019-02-09T11:57:58.173Z,2.93
2019-02-09T12:00:29.575Z,2.17
2019-02-09T12:03:03.060Z,2.97
2019-02-09T12:05:29.842Z,2.80
2019-02-09T12:07:58.925Z,3.17
2019-02-09T12:10:28.415Z,2.93
2019-02-09T12:12:57.867Z,2.80
2019-02-09T12:15:29.370Z,3.20
2019-02-09T12:17:58.596Z,3.00
2019-02-09T12:20:27.709Z,3.57
2019-02-09T12:22:56.955Z,4.10
2019-02-09T12:25:31.018Z,4.10
2019-02-09T12:28:00.165Z,3.70
2019-02-09T12:30:31.509Z,4.00
2019-02-09T12:33:01.469Z,3.80
2019-02-09T12:35:30.948Z,3.13
2019-02-09T12:38:00.397Z,3.23
2019-02-09T12:40:31.065Z,3.80
2019-02-09T12:43:00.131Z,4.70
2019-02-09T12:45:30.144Z,3.97
2019-02-09T12:47:59.190Z,3.90
2019-02-09T12:50:28.802Z,3.30
2019-02-09T12:52:58.193Z,3.70
2019-02-09T12:55:27.348Z,4.00
2019-02-09T12:57:56.400Z,3.60
2019-02-09T13:00:30.335Z,4.27
2019-02-09T13:03:01.614Z,3.83
2019-02-09T13:05:30.690Z,3.63
2019-02-09T13:08:00.093Z,3.30
2019-02-09T13:10:29.460Z,3.90
2019-02-09T13:12:59.250Z,3.50
2019-02-09T13:15:29.192Z,3.97
2019-02-09T13:17:58.574Z,3.60
2019-02-09T13:20:28.331Z,3.83
2019-02-09T13:22:57.729Z,4.43
2019-02-09T13:25:27.364Z,3.60
2019-02-09T13:27:56.933Z,4.13
2019-02-09T13:30:28.643Z,4.27
2019-02-09T13:32:57.666Z,4.57
2019-02-09T13:35:26.912Z,3.70
2019-02-09T13:37:55.997Z,3.73
2019-02-09T13:40:25.199Z,3.90
2019-02-09T13:42:54.541Z,3.27
2019-02-09T13:45:35.436Z,3.90
2019-02-09T13:48:04.875Z,4.17
2019-02-09T13:50:34.966Z,3.30
2019-02-09T13:53:04.068Z,3.70
2019-02-09T13:55:33.167Z,4.27
2019-02-09T13:58:02.310Z,3.57
2019-02-09T14:00:32.091Z,4.20
2019-02-09T14:03:01.524Z,3.17
2019-02-09T14:05:30.878Z,3.40
2019-02-09T14:08:00.482Z,2.97
2019-02-09T14:10:30.077Z,2.90
2019-02-09T14:12:59.106Z,3.20
2019-02-09T14:15:30.077Z,3.33
2019-02-09T14:18:00.936Z,3.57
2019-02-09T14:20:30.478Z,3.43
2019-02-09T14:22:59.884Z,3.90
2019-02-09T14:25:28.971Z,4.00
2019-02-09T14:28:00.273Z,3.80
2019-02-09T14:30:30.809Z,2.80
2019-02-09T14:33:00.303Z,3.73
2019-02-09T14:35:30.110Z,3.13
2019-02-09T14:37:59.233Z,2.93
2019-02-09T14:40:30.429Z,2.60
2019-02-09T14:42:59.585Z,2.87
2019-02-09T14:45:31.012Z,3.13
2019-02-09T14:48:00.056Z,3.07
2019-02-09T14:50:29.208Z,2.47
2019-02-09T14:52:58.338Z,2.97
2019-02-09T14:55:32.305Z,3.00
2019-02-09T14:58:02.097Z,3.23
2019-02-09T15:00:33.638Z,3.30
2019-02-09T15:03:02.704Z,3.33
2019-02-09T15:05:31.782Z,3.23
2019-02-09T15:08:00.814Z,3.80
2019-02-09T15:10:29.865Z,3.90
2019-02-09T15:12:58.870Z,3.30
2019-02-09T15:15:40.126Z,3.90
2019-02-09T15:18:10.431Z,3.80
2019-02-09T15:20:43.142Z,4.30
2019-02-09T15:23:12.190Z,4.13
2019-02-09T15:25:41.594Z,3.80
2019-02-09T15:28:12.710Z,4.57
2019-02-09T15:30:41.580Z,3.97
2019-02-09T15:33:10.646Z,4.33
2019-02-09T15:35:39.662Z,4.83
2019-02-09T15:38:08.758Z,4.27
2019-02-09T15:40:38.152Z,4.20
2019-02-09T15:43:07.180Z,4.27
2019-02-09T15:45:37.098Z,4.07
2019-02-09T15:48:06.772Z,4.00
2019-02-09T15:50:36.168Z,4.00
2019-02-09T15:53:05.982Z,4.50
2019-02-09T15:55:35.044Z,3.13
2019-02-09T15:58:04.591Z,4.10
2019-02-09T16:00:33.896Z,4.10
2019-02-09T16:03:02.978Z,3.50
2019-02-09T16:05:32.041Z,2.93
2019-02-09T16:08:01.497Z,3.93
2019-02-09T16:10:30.940Z,2.97
2019-02-09T16:13:00.293Z,2.90
2019-02-09T16:15:29.708Z,2.17
2019-02-09T16:17:58.974Z,2.67
2019-02-09T16:20:28.398Z,2.90
2019-02-09T16:22:57.806Z,2.70
2019-02-09T16:25:26.918Z,2.87
2019-02-09T16:27:56.319Z,2.70
2019-02-09T16:30:26.416Z,3.20
2019-02-09T16:32:55.495Z,3.13
2019-02-09T16:35:25.324Z,3.70
2019-02-09T16:37:54.850Z,3.60
2019-02-09T16:40:26.120Z,3.17
2019-02-09T16:42:55.514Z,3.13
2019-02-09T16:45:26.972Z,4.43
2019-02-09T16:47:56.150Z,4.17
2019-02-09T16:50:25.553Z,4.43
2019-02-09T16:52:54.919Z,4.00
2019-02-09T16:55:24.182Z,4.30
2019-02-09T16:57:53.247Z,4.10
2019-02-09T17:00:25.451Z,4.27
2019-02-09T17:02:56.160Z,4.03
2019-02-09T17:05:25.587Z,3.83
2019-02-09T17:07:54.618Z,3.80
2019-02-09T17:10:24.323Z,3.50
2019-02-09T17:12:53.781Z,4.20
2019-02-09T17:15:25.104Z,4.83
2019-02-09T17:17:54.363Z,3.33
2019-02-09T17:20:23.707Z,3.83
2019-02-09T17:22:53.023Z,4.00
2019-02-09T17:25:22.313Z,4.03
2019-02-09T17:27:51.535Z,4.07
2019-02-09T17:30:25.330Z,3.87
2019-02-09T17:32:54.632Z,3.90
2019-02-09T17:35:23.940Z,3.77
2019-02-09T17:37:53.275Z,3.60
2019-02-09T17:40:24.840Z,3.50
2019-02-09T17:42:54.748Z,4.10
2019-02-09T17:45:26.423Z,6.30
2019-02-09T17:47:55.532Z,3.00
2019-02-09T17:50:25.332Z,3.57
2019-02-09T17:52:55.720Z,3.93
2019-02-09T17:55:24.980Z,3.63
2019-02-09T17:57:54.730Z,4.10
2019-02-09T18:00:49.926Z,3.90
2019-02-09T18:03:19.076Z,3.43
2019-02-09T18:05:48.220Z,3.70
2019-02-09T18:08:17.684Z,4.30
2019-02-09T18:10:46.756Z,4.30
2019-02-09T18:13:15.794Z,3.70
2019-02-09T18:15:45.208Z,4.77
2019-02-09T18:18:14.216Z,4.17
2019-02-09T18:20:43.705Z,4.53
2019-02-09T18:23:12.731Z,4.50
2019-02-09T18:25:41.795Z,4.37
2019-02-09T18:28:11.340Z,3.97
2019-02-09T18:30:40.380Z,4.33
2019-02-09T18:33:09.726Z,3.80
2019-02-09T18:35:38.812Z,4.07
2019-02-09T18:38:08.224Z,4.07
2019-02-09T18:40:37.473Z,4.13
2019-02-09T18:43:07.835Z,3.80
2019-02-09T18:45:36.916Z,4.00
2019-02-09T18:48:06.522Z,4.23
2019-02-09T18:50:35.652Z,4.20
2019-02-09T18:53:04.691Z,5.07
2019-02-09T18:55:34.172Z,3.47
2019-02-09T18:58:03.178Z,3.97
2019-02-09T19:00:33.144Z,3.80
2019-02-09T19:03:02.530Z,3.83
2019-02-09T19:05:31.558Z,3.80
2019-02-09T19:08:00.996Z,3.67
2019-02-09T19:10:30.158Z,4.00
2019-02-09T19:12:59.556Z,4.50
2019-02-09T19:15:30.715Z,4.80
2019-02-09T19:17:59.818Z,4.83
2019-02-09T19:20:34.710Z,4.97
2019-02-09T19:23:03.744Z,4.63
2019-02-09T19:25:33.101Z,3.60
2019-02-09T19:28:02.131Z,3.93
2019-02-09T19:30:34.593Z,3.73
2019-02-09T19:33:04.500Z,3.90
2019-02-09T19:35:34.626Z,4.10
2019-02-09T19:38:06.041Z,4.03
2019-02-09T19:40:35.240Z,4.50
2019-02-09T19:43:05.648Z,4.43
2019-02-09T19:45:36.608Z,4.37
2019-02-09T19:48:06.811Z,3.80
2019-02-09T19:50:35.946Z,3.17
2019-02-09T19:53:05.506Z,4.00
2019-02-09T19:55:34.639Z,3.30
2019-02-09T19:58:06.343Z,3.30
2019-02-09T20:00:37.852Z,3.27
2019-02-09T20:03:07.721Z,3.77
2019-02-09T20:05:36.793Z,3.60
2019-02-09T20:08:07.414Z,3.70
2019-02-09T20:10:37.602Z,2.67
2019-02-09T20:13:07.469Z,3.43
2019-02-09T20:15:36.529Z,4.13
2019-02-09T20:18:06.865Z,5.07
2019-02-09T20:20:36.833Z,4.03
2019-02-09T20:23:06.738Z,3.77
2019-02-09T20:25:36.085Z,3.70
2019-02-09T20:28:05.697Z,3.43
2019-02-09T20:30:35.524Z,3.37
2019-02-09T20:33:07.137Z,3.60
2019-02-09T20:35:36.449Z,3.70
2019-02-09T20:38:06.014Z,3.67
2019-02-09T20:40:43.070Z,3.57
2019-02-09T20:43:14.114Z,4.43
2019-02-09T20:45:43.146Z,3.77
2019-02-09T20:48:12.529Z,3.43
2019-02-09T20:50:41.542Z,3.80
2019-02-09T20:53:10.571Z,3.17
2019-02-09T20:55:40.003Z,4.00
2019-02-09T20:58:10.938Z,2.87
2019-02-09T21:00:40.071Z,3.30
2019-02-09T21:03:09.148Z,3.97
2019-02-09T21:05:38.199Z,3.40
2019-02-09T21:08:07.959Z,3.50
2019-02-09T21:10:37.610Z,3.77
2019-02-09T21:13:07.259Z,2.97
2019-02-09T21:15:36.682Z,3.47
2019-02-09T21:18:06.750Z,3.53
2019-02-09T21:20:36.474Z,3.07
2019-02-09T21:23:05.839Z,3.20
2019-02-09T21:25:37.142Z,4.53
2019-02-09T21:28:06.517Z,3.27
2019-02-09T21:30:35.890Z,4.10
2019-02-09T21:33:25.562Z,3.93
2019-02-09T21:35:54.641Z,3.40
2019-02-09T21:38:23.728Z,3.60
2019-02-09T21:40:52.799Z,3.23
2019-02-09T21:43:22.000Z,3.20
2019-02-09T21:45:51.384Z,3.67
2019-02-09T21:48:21.849Z,3.53
2019-02-09T21:50:50.889Z,3.33
2019-02-09T21:53:19.934Z,3.73
2019-02-09T21:55:49.406Z,4.23
2019-02-09T21:58:18.886Z,4.63
2019-02-09T22:00:48.007Z,3.63
2019-02-09T22:03:17.060Z,3.97
2019-02-09T22:05:51.632Z,3.33
2019-02-09T22:08:19.675Z,3.63
2019-02-09T22:10:48.450Z,3.83
2019-02-09T22:13:17.936Z,3.57
2019-02-09T22:15:47.322Z,4.20
2019-02-09T22:18:16.355Z,4.33
2019-02-09T22:20:52.449Z,4.10
2019-02-09T22:23:16.431Z,3.97
2019-02-09T22:25:45.506Z,4.40
2019-02-09T22:28:14.856Z,3.70
2019-02-09T22:30:44.013Z,3.63
2019-02-09T22:33:14.717Z,3.17
2019-02-09T22:35:44.067Z,3.53
2019-02-09T22:38:13.221Z,4.27
2019-02-09T22:40:48.574Z,3.90
2019-02-09T22:43:18.092Z,3.70
2019-02-09T22:45:47.233Z,4.67
2019-02-09T22:48:16.257Z,4.67
2019-02-09T22:50:46.711Z,3.40
2019-02-09T22:53:16.007Z,3.70
2019-02-09T22:55:46.252Z,3.70
2019-02-09T22:58:15.359Z,3.83
2019-02-09T23:01:22.555Z,3.80
2019-02-09T23:03:59.435Z,3.97
2019-02-09T23:06:40.777Z,4.17
2019-02-09T23:09:14.131Z,3.50
2019-02-09T23:11:43.779Z,3.87
2019-02-09T23:14:12.825Z,4.00
2019-02-09T23:16:42.183Z,4.10
2019-02-09T23:19:11.278Z,4.53
2019-02-09T23:21:40.335Z,3.70
2019-02-09T23:24:09.541Z,4.30
2019-02-09T23:26:39.366Z,4.03
2019-02-09T23:29:08.423Z,3.93
2019-02-09T23:31:37.461Z,4.60
2019-02-09T23:34:06.462Z,4.60
2019-02-09T23:36:35.487Z,4.10
2019-02-09T23:39:25.355Z,3.80
2019-02-09T23:41:54.997Z,4.03
2019-02-09T23:44:24.052Z,4.00
2019-02-09T23:46:53.443Z,4.03
2019-02-09T23:49:22.566Z,3.93
2019-02-09T23:51:51.663Z,3.83
2019-02-09T23:54:21.326Z,4.50
2019-02-09T23:56:50.812Z,3.00
2019-02-09T23:59:19.889Z,4.07
